Time;durP1;ratioP1;P1;durP2;ratioP2;P2;SDS_P1;SDS_P2;PMS_P1;PMS_P2;Temp;Humidity;BMP_temperature;BMP_pressure;BME280_temperature;BME280_humidity;BME280_pressure;Samples;Min_cycle;Max_cycle;Signal;HPM_P1;HPM_P2
2022/12/23 00:01:18;;;;;;;;;;;9.30;99.90;;;;;;5047180;28;19913;-64
2022/12/23 00:03:44;;;;;;;;;;;9.30;99.90;;;;;;5046748;28;20003;-63
2022/12/23 00:06:11;;;;;;;;;;;9.30;99.90;;;;;;5048769;28;19917;-63
2022/12/23 00:08:37;;;;;;;;;;;9.30;99.90;;;;;;5046027;28;19920;-63
2022/12/23 00:11:03;;;;;;;;;;;9.30;99.90;;;;;;5047326;28;19916;-63
2022/12/23 00:16:13;;;;;;;;;;;9.40;99.90;;;;;;5044926;28;19924;-63
2022/12/23 00:18:39;;;;;;;;;;;9.40;99.90;;;;;;5049896;28;19913;-62
2022/12/23 00:21:06;;;;;;;;;;;9.50;99.90;;;;;;5047745;28;19974;-63
2022/12/23 00:23:32;;;;;;;;;;;9.50;99.90;;;;;;5047891;28;19930;-63
2022/12/23 00:25:58;;;;;;;;;;;9.50;99.90;;;;;;5048423;28;20028;-65
2022/12/23 00:28:24;;;;;;;;;;;9.60;99.90;;;;;;5044424;28;20381;-63
2022/12/23 00:31:05;;;;;;;;;;;9.60;99.90;;;;;;5047259;28;19912;-63
2022/12/23 00:33:36;;;;;;;;;;;9.60;99.90;;;;;;5048285;28;19966;-63
2022/12/23 00:36:01;;;;;;;;;;;9.60;99.90;;;;;;5049498;28;19912;-64
2022/12/23 00:43:56;;;;;;;;;;;9.60;99.90;;;;;;5047999;28;20400;-64
2022/12/23 00:46:22;;;;;;;;;;;9.50;99.90;;;;;;5048335;28;19970;-64
2022/12/23 00:51:31;;;;;;;;;;;9.40;99.90;;;;;;5049184;28;19921;-64
2022/12/23 00:53:56;;;;;;;;;;;9.60;99.90;;;;;;5048078;28;19921;-63
2022/12/23 00:56:22;;;;;;;;;;;9.50;99.90;;;;;;5048114;28;19948;-64
2022/12/23 00:58:47;;;;;;;;;;;9.50;99.90;;;;;;5045114;28;20407;-63
2022/12/23 01:06:41;;;;;;;;;;;9.60;99.90;;;;;;5048045;28;19963;-63
2022/12/23 01:09:07;;;;;;;;;;;9.70;99.90;;;;;;5050062;28;19913;-64
2022/12/23 01:11:33;;;;;;;;;;;9.80;99.90;;;;;;5048158;28;19912;-64
2022/12/23 01:13:58;;;;;;;;;;;9.80;99.90;;;;;;5043562;28;19923;-62
2022/12/23 01:16:23;;;;;;;;;;;9.80;99.90;;;;;;5046873;28;19923;-63
2022/12/23 01:18:49;;;;;;;;;;;9.90;99.90;;;;;;5048556;28;19913;-64
2022/12/23 01:21:14;;;;;;;;;;;9.90;99.90;;;;;;5049808;28;20322;-63
2022/12/23 01:23:40;;;;;;;;;;;10.00;99.90;;;;;;5049855;28;19928;-63
2022/12/23 01:26:06;;;;;;;;;;;10.00;99.90;;;;;;5051665;28;19920;-63
2022/12/23 01:28:32;;;;;;;;;;;9.90;99.90;;;;;;5050455;28;19913;-63
2022/12/23 01:30:58;;;;;;;;;;;9.90;99.90;;;;;;5050545;28;19936;-60
2022/12/23 01:33:24;;;;;;;;;;;9.90;99.90;;;;;;5050526;28;20019;-63
2022/12/23 01:35:49;;;;;;;;;;;10.00;99.90;;;;;;5050421;28;20012;-62
2022/12/23 01:38:15;;;;;;;;;;;9.90;99.90;;;;;;5051277;28;19913;-62
2022/12/23 01:40:41;;;;;;;;;;;10.00;99.90;;;;;;5050950;28;20400;-62
2022/12/23 01:43:13;;;;;;;;;;;10.00;99.90;;;;;;5052457;28;19917;-61
2022/12/23 01:45:38;;;;;;;;;;;10.00;99.90;;;;;;5048082;28;19917;-61
2022/12/23 01:48:09;;;;;;;;;;;10.10;99.90;;;;;;5051641;28;19917;-63
2022/12/23 01:50:41;;;;;;;;;;;10.00;99.90;;;;;;5051779;28;20000;-63
2022/12/23 01:53:15;;;;;;;;;;;10.10;99.90;;;;;;5048665;28;19912;-62
2022/12/23 01:55:44;;;;;;;;;;;10.10;99.90;;;;;;5050259;28;20015;-63
2022/12/23 01:58:12;;;;;;;;;;;10.20;99.90;;;;;;5050838;28;19920;-63
2022/12/23 02:03:41;;;;;;;;;;;10.20;99.90;;;;;;5049051;28;19920;-62
2022/12/23 02:09:17;;;;;;;;;;;10.20;99.90;;;;;;5050193;28;19926;-62
2022/12/23 02:11:55;;;;;;;;;;;10.20;99.90;;;;;;5050569;28;19928;-63
2022/12/23 02:17:24;;;;;;;;;;;10.20;99.90;;;;;;5048285;28;19966;-62
2022/12/23 02:19:56;;;;;;;;;;;10.20;99.90;;;;;;5048258;28;19993;-63
2022/12/23 02:22:57;;;;;;;;;;;10.20;99.90;;;;;;5050083;28;19917;-61
2022/12/23 02:25:41;;;;;;;;;;;10.20;99.90;;;;;;5008342;28;19921;-62
2022/12/23 02:28:06;;;;;;;;;;;10.20;99.90;;;;;;5045302;28;19921;-64
2022/12/23 02:30:41;;;;;;;;;;;10.20;99.90;;;;;;5048186;28;19974;-62
2022/12/23 02:33:14;;;;;;;;;;;10.30;99.90;;;;;;5048689;28;19912;-62
2022/12/23 02:35:43;;;;;;;;;;;10.30;99.90;;;;;;5048859;28;20294;-62
2022/12/23 02:38:34;;;;;;;;;;;10.30;99.90;;;;;;5046785;28;20013;-64
2022/12/23 02:41:08;;;;;;;;;;;10.30;99.90;;;;;;5041560;28;20063;-65
2022/12/23 02:43:48;;;;;;;;;;;10.40;99.90;;;;;;5049869;28;19928;-64
2022/12/23 02:46:19;;;;;;;;;;;10.30;99.90;;;;;;5050038;28;19916;-62
2022/12/23 02:48:49;;;;;;;;;;;10.40;99.90;;;;;;5048845;28;19917;-63
2022/12/23 02:51:15;;;;;;;;;;;10.40;99.90;;;;;;5048628;28;19912;-63
2022/12/23 02:53:46;;;;;;;;;;;10.40;99.90;;;;;;5048305;28;19935;-64
2022/12/23 02:56:13;;;;;;;;;;;10.50;99.90;;;;;;5048264;28;19913;-64
2022/12/23 02:58:41;;;;;;;;;;;10.50;99.90;;;;;;5051329;28;19913;-64
2022/12/23 03:01:06;;;;;;;;;;;10.50;99.90;;;;;;5046526;28;20286;-63
2022/12/23 03:03:33;;;;;;;;;;;10.40;99.90;;;;;;5049004;28;19921;-64
2022/12/23 03:06:01;;;;;;;;;;;10.50;99.90;;;;;;5049575;28;19923;-63
2022/12/23 03:08:30;;;;;;;;;;;10.60;99.90;;;;;;5050269;28;20294;-64
2022/12/23 03:10:55;;;;;;;;;;;10.50;99.90;;;;;;5048976;28;19916;-64
2022/12/23 03:13:20;;;;;;;;;;;10.60;99.90;;;;;;5049865;28;19912;-65
2022/12/23 03:15:49;;;;;;;;;;;10.50;99.90;;;;;;5068134;22;19932;-67
2022/12/23 03:18:20;;;;;;;;;;;10.50;99.90;;;;;;5057989;28;19916;-64
2022/12/23 03:20:46;;;;;;;;;;;10.70;99.90;;;;;;5058204;28;19920;-64
2022/12/23 03:23:18;;;;;;;;;;;10.70;99.90;;;;;;5030630;28;20015;-65
2022/12/23 03:25:48;;;;;;;;;;;10.60;99.90;;;;;;5052931;28;20018;-66
2022/12/23 03:28:18;;;;;;;;;;;10.60;99.90;;;;;;5031309;28;19921;-64
2022/12/23 03:30:46;;;;;;;;;;;10.60;99.90;;;;;;5038990;28;19974;-65
2022/12/23 03:33:18;;;;;;;;;;;10.60;99.90;;;;;;5059086;28;19913;-66
2022/12/23 03:35:49;;;;;;;;;;;10.60;99.90;;;;;;5054655;28;19951;-63
2022/12/23 03:38:16;;;;;;;;;;;10.70;99.90;;;;;;5056619;28;19962;-65
2022/12/23 03:40:43;;;;;;;;;;;10.70;99.90;;;;;;5048618;28;20322;-64
2022/12/23 03:43:16;;;;;;;;;;;10.60;99.90;;;;;;5050874;28;20366;-67
2022/12/23 03:45:43;;;;;;;;;;;10.60;99.90;;;;;;5049283;28;20421;-63
2022/12/23 03:48:14;;;;;;;;;;;10.60;99.90;;;;;;5056610;28;19959;-65
2022/12/23 03:50:41;;;;;;;;;;;10.60;99.90;;;;;;5051698;28;19912;-64
2022/12/23 03:53:12;;;;;;;;;;;10.50;99.90;;;;;;5047840;28;19913;-67
2022/12/23 03:55:40;;;;;;;;;;;10.50;99.90;;;;;;5049481;28;20011;-66
2022/12/23 03:58:08;;;;;;;;;;;10.60;99.90;;;;;;5052033;28;20017;-66
2022/12/23 04:00:34;;;;;;;;;;;10.60;99.90;;;;;;5048335;28;20362;-66
2022/12/23 04:03:09;;;;;;;;;;;10.60;99.90;;;;;;5057700;28;20404;-64
2022/12/23 04:05:37;;;;;;;;;;;10.70;99.90;;;;;;5047630;28;20003;-67
2022/12/23 04:08:11;;;;;;;;;;;10.70;99.90;;;;;;5043047;28;19974;-64
2022/12/23 04:10:36;;;;;;;;;;;10.60;99.90;;;;;;5047879;28;19913;-67
2022/12/23 04:13:02;;;;;;;;;;;10.60;99.90;;;;;;5051204;28;19913;-65
2022/12/23 04:15:28;;;;;;;;;;;10.60;99.90;;;;;;5048753;28;19975;-65
2022/12/23 04:17:54;;;;;;;;;;;10.60;99.90;;;;;;5054841;28;19920;-64
2022/12/23 04:20:20;;;;;;;;;;;10.50;99.90;;;;;;5052551;28;19913;-65
2022/12/23 04:22:45;;;;;;;;;;;10.50;99.90;;;;;;5053457;28;20015;-65
2022/12/23 04:25:11;;;;;;;;;;;10.40;99.90;;;;;;5044792;28;20432;-69
2022/12/23 04:27:37;;;;;;;;;;;10.30;99.90;;;;;;5054592;28;19951;-66
2022/12/23 04:30:03;;;;;;;;;;;10.40;99.90;;;;;;5054889;28;19956;-67
2022/12/23 04:32:28;;;;;;;;;;;10.30;99.90;;;;;;5050023;28;20358;-63
2022/12/23 04:34:54;;;;;;;;;;;10.20;99.90;;;;;;5054709;28;19944;-67
2022/12/23 04:37:19;;;;;;;;;;;10.20;99.90;;;;;;5052357;28;20386;-67
2022/12/23 04:39:45;;;;;;;;;;;10.10;99.90;;;;;;5057499;28;19923;-67
2022/12/23 04:42:10;;;;;;;;;;;10.10;99.90;;;;;;5051325;28;19920;-64
2022/12/23 04:44:36;;;;;;;;;;;10.10;99.90;;;;;;5048491;28;19948;-66
2022/12/23 04:47:01;;;;;;;;;;;10.00;99.90;;;;;;5055115;28;19923;-66
2022/12/23 04:49:27;;;;;;;;;;;10.00;99.90;;;;;;5035234;28;19924;-67
2022/12/23 04:51:52;;;;;;;;;;;10.10;99.90;;;;;;5048556;28;19917;-67
2022/12/23 04:54:18;;;;;;;;;;;10.10;99.90;;;;;;5047985;28;19993;-67
2022/12/23 04:56:43;;;;;;;;;;;10.10;99.90;;;;;;5051686;28;19952;-67
2022/12/23 04:59:09;;;;;;;;;;;10.20;99.90;;;;;;5050792;28;20383;-62
2022/12/23 05:01:34;;;;;;;;;;;10.10;99.90;;;;;;5051305;28;19982;-65
2022/12/23 05:04:00;;;;;;;;;;;10.10;99.90;;;;;;5053526;28;19913;-67
2022/12/23 05:06:25;;;;;;;;;;;10.10;99.90;;;;;;5049746;28;20026;-65
2022/12/23 05:08:51;;;;;;;;;;;10.10;99.90;;;;;;5050545;28;19969;-65
2022/12/23 05:11:16;;;;;;;;;;;10.20;99.90;;;;;;5048324;28;19916;-66
2022/12/23 05:13:41;;;;;;;;;;;10.20;99.90;;;;;;5054671;28;19939;-65
2022/12/23 05:16:07;;;;;;;;;;;10.20;99.90;;;;;;5048195;28;19917;-68
2022/12/23 05:18:32;;;;;;;;;;;10.20;99.90;;;;;;5055068;28;19913;-66
2022/12/23 05:20:58;;;;;;;;;;;10.20;99.90;;;;;;5052008;28;19971;-65
2022/12/23 05:23:23;;;;;;;;;;;10.20;99.90;;;;;;5046200;28;19924;-65
2022/12/23 05:25:51;;;;;;;;;;;10.20;99.90;;;;;;5051682;28;19917;-67
2022/12/23 05:28:17;;;;;;;;;;;10.20;99.90;;;;;;5047512;28;19912;-64
2022/12/23 05:30:42;;;;;;;;;;;10.20;99.90;;;;;;5051856;28;19928;-65
2022/12/23 05:33:08;;;;;;;;;;;10.10;99.90;;;;;;5049049;28;19912;-66
2022/12/23 05:35:33;;;;;;;;;;;10.10;99.90;;;;;;5050030;28;19920;-65
2022/12/23 05:38:01;;;;;;;;;;;10.00;99.90;;;;;;5050950;28;19916;-65
2022/12/23 05:40:26;;;;;;;;;;;10.00;99.90;;;;;;5048350;28;19921;-65
2022/12/23 05:42:52;;;;;;;;;;;10.00;99.90;;;;;;5057521;28;19974;-65
2022/12/23 05:45:17;;;;;;;;;;;10.00;99.90;;;;;;5049027;28;19917;-67
2022/12/23 05:47:43;;;;;;;;;;;10.10;99.90;;;;;;5036082;28;19921;-66
2022/12/23 05:50:08;;;;;;;;;;;10.00;99.90;;;;;;5045261;28;19913;-65
2022/12/23 05:52:34;;;;;;;;;;;10.00;99.90;;;;;;5053497;28;19913;-67
2022/12/23 05:54:59;;;;;;;;;;;10.00;99.90;;;;;;5045991;28;19920;-66
2022/12/23 05:57:24;;;;;;;;;;;9.90;99.90;;;;;;5049462;28;19913;-66
2022/12/23 05:59:50;;;;;;;;;;;10.00;99.90;;;;;;5050475;28;20003;-65
2022/12/23 06:02:15;;;;;;;;;;;10.10;99.90;;;;;;5047063;28;20406;-66
2022/12/23 06:04:41;;;;;;;;;;;10.20;99.90;;;;;;5049182;28;20346;-66
2022/12/23 06:07:06;;;;;;;;;;;10.30;99.90;;;;;;5056036;28;19920;-65
2022/12/23 06:09:32;;;;;;;;;;;10.20;99.90;;;;;;5052631;28;19917;-67
2022/12/23 06:11:57;;;;;;;;;;;10.20;99.90;;;;;;5053145;28;19935;-66
2022/12/23 06:14:23;;;;;;;;;;;10.10;99.90;;;;;;5044091;28;20332;-66
2022/12/23 06:16:50;;;;;;;;;;;10.10;99.90;;;;;;5058599;28;19947;-65
2022/12/23 06:19:15;;;;;;;;;;;10.10;99.90;;;;;;5050832;28;19916;-66
2022/12/23 06:21:41;;;;;;;;;;;10.10;99.90;;;;;;5055978;28;19920;-65
2022/12/23 06:24:06;;;;;;;;;;;10.10;99.90;;;;;;5049842;28;19924;-65
2022/12/23 06:26:33;;;;;;;;;;;10.10;99.90;;;;;;5052952;28;19924;-66
2022/12/23 06:28:58;;;;;;;;;;;10.00;99.90;;;;;;5039657;28;19916;-66
2022/12/23 06:31:24;;;;;;;;;;;10.00;99.90;;;;;;5048249;28;19917;-66
2022/12/23 06:33:49;;;;;;;;;;;10.10;99.90;;;;;;5051236;28;21747;-66
2022/12/23 06:36:14;;;;;;;;;;;10.00;99.90;;;;;;5050437;28;20282;-66
2022/12/23 06:38:40;;;;;;;;;;;10.10;99.90;;;;;;5047844;28;19977;-66
2022/12/23 06:41:06;;;;;;;;;;;10.20;99.90;;;;;;5047772;28;20039;-67
2022/12/23 06:43:32;;;;;;;;;;;10.10;99.90;;;;;;5053304;28;20384;-64
2022/12/23 06:45:57;;;;;;;;;;;10.10;99.90;;;;;;5043540;28;20038;-65
2022/12/23 06:48:22;;;;;;;;;;;10.10;99.90;;;;;;5048717;28;20305;-66
2022/12/23 06:50:48;;;;;;;;;;;10.10;99.90;;;;;;5030302;28;20015;-66
2022/12/23 06:53:13;;;;;;;;;;;10.10;99.90;;;;;;5051956;28;19913;-65
2022/12/23 06:55:39;;;;;;;;;;;10.10;99.90;;;;;;5048464;28;19914;-66
2022/12/23 06:58:04;;;;;;;;;;;10.10;99.90;;;;;;5047782;28;19909;-65
2022/12/23 07:00:30;;;;;;;;;;;10.10;99.90;;;;;;5052024;28;19913;-64
2022/12/23 07:02:55;;;;;;;;;;;10.10;99.90;;;;;;5049096;28;20422;-65
2022/12/23 07:05:21;;;;;;;;;;;10.00;99.90;;;;;;5044230;28;20402;-68
2022/12/23 07:07:46;;;;;;;;;;;10.10;99.90;;;;;;5031194;28;20386;-68
2022/12/23 07:10:12;;;;;;;;;;;10.10;99.90;;;;;;5050400;28;20322;-66
2022/12/23 07:12:37;;;;;;;;;;;10.10;99.90;;;;;;5045757;28;19940;-65
2022/12/23 07:15:04;;;;;;;;;;;10.10;99.90;;;;;;5049290;28;19992;-66
2022/12/23 07:17:30;;;;;;;;;;;10.10;99.90;;;;;;5029879;28;19971;-66
2022/12/23 07:19:55;;;;;;;;;;;10.10;99.90;;;;;;5028169;28;20385;-66
2022/12/23 07:22:21;;;;;;;;;;;10.10;99.90;;;;;;5043741;28;19921;-66
2022/12/23 07:24:46;;;;;;;;;;;10.10;99.90;;;;;;5048943;28;19927;-65
2022/12/23 07:27:12;;;;;;;;;;;10.10;99.90;;;;;;5049299;28;19913;-66
2022/12/23 07:29:37;;;;;;;;;;;10.10;99.90;;;;;;5055629;28;19924;-65
2022/12/23 07:32:03;;;;;;;;;;;10.20;99.90;;;;;;5046544;28;20375;-64
2022/12/23 07:34:28;;;;;;;;;;;10.20;99.90;;;;;;5050641;28;20342;-65
2022/12/23 07:36:54;;;;;;;;;;;10.20;99.90;;;;;;5053843;28;20003;-65
2022/12/23 07:39:19;;;;;;;;;;;10.20;99.90;;;;;;5037749;28;19913;-65
2022/12/23 07:41:45;;;;;;;;;;;10.20;99.90;;;;;;5051497;28;19983;-65
2022/12/23 07:44:10;;;;;;;;;;;10.20;99.90;;;;;;5030842;28;20607;-65
2022/12/23 07:46:36;;;;;;;;;;;10.20;99.90;;;;;;5060629;28;20003;-65
2022/12/23 07:49:02;;;;;;;;;;;10.20;99.90;;;;;;5048741;28;20634;-65
2022/12/23 07:51:27;;;;;;;;;;;10.10;99.90;;;;;;5048156;28;19912;-65
2022/12/23 07:53:53;;;;;;;;;;;10.20;99.90;;;;;;5047082;28;19956;-65
2022/12/23 07:56:18;;;;;;;;;;;10.20;99.90;;;;;;5047513;28;20349;-65
2022/12/23 07:58:48;;;;;;;;;;;10.20;99.90;;;;;;5051381;28;19913;-65
2022/12/23 08:01:13;;;;;;;;;;;10.20;99.90;;;;;;5045441;28;19913;-65
2022/12/23 08:03:39;;;;;;;;;;;10.20;99.90;;;;;;5052360;28;19917;-65
2022/12/23 08:06:05;;;;;;;;;;;10.20;99.90;;;;;;5051547;28;20049;-64
2022/12/23 08:08:31;;;;;;;;;;;10.20;99.90;;;;;;5045791;28;19913;-59
2022/12/23 08:10:58;;;;;;;;;;;10.20;99.90;;;;;;5054949;28;20290;-61
2022/12/23 08:13:23;;;;;;;;;;;10.30;99.90;;;;;;5047185;28;19920;-62
2022/12/23 08:15:52;;;;;;;;;;;10.50;99.90;;;;;;5041179;28;19924;-63
2022/12/23 08:18:18;;;;;;;;;;;10.50;99.90;;;;;;5045988;28;19913;-62
2022/12/23 08:20:43;;;;;;;;;;;10.40;99.90;;;;;;5045713;28;19939;-63
2022/12/23 08:23:09;;;;;;;;;;;10.40;99.90;;;;;;5050915;28;19913;-62
2022/12/23 08:25:34;;;;;;;;;;;10.40;99.90;;;;;;5051956;28;19952;-63
2022/12/23 08:27:59;;;;;;;;;;;10.40;99.90;;;;;;5045062;28;19913;-62
2022/12/23 08:30:25;;;;;;;;;;;10.40;99.90;;;;;;5046188;28;19956;-60
2022/12/23 08:32:50;;;;;;;;;;;10.40;99.90;;;;;;5056453;28;19913;-61
2022/12/23 08:35:16;;;;;;;;;;;10.40;99.90;;;;;;5050320;28;19924;-61
2022/12/23 08:37:42;;;;;;;;;;;10.40;99.90;;;;;;5050555;28;19923;-61
2022/12/23 08:40:08;;;;;;;;;;;10.40;99.90;;;;;;5047835;28;20004;-61
2022/12/23 08:42:34;;;;;;;;;;;10.30;99.90;;;;;;5045928;28;20055;-62
2022/12/23 08:44:59;;;;;;;;;;;10.30;99.90;;;;;;5050729;28;19970;-60
2022/12/23 08:47:25;;;;;;;;;;;10.30;99.90;;;;;;5052602;28;19920;-61
2022/12/23 08:49:50;;;;;;;;;;;10.40;99.90;;;;;;5049630;28;19913;-63
2022/12/23 08:52:16;;;;;;;;;;;10.50;99.90;;;;;;5050622;28;19917;-63
2022/12/23 08:54:41;;;;;;;;;;;10.50;99.90;;;;;;5042961;28;19936;-62
2022/12/23 08:57:07;;;;;;;;;;;10.50;99.90;;;;;;5048764;28;19920;-62
2022/12/23 08:59:32;;;;;;;;;;;10.50;99.90;;;;;;5044678;28;19939;-64
2022/12/23 09:02:00;;;;;;;;;;;10.50;99.90;;;;;;5049109;28;19912;-63
2022/12/23 09:04:26;;;;;;;;;;;10.60;99.90;;;;;;5044925;28;19916;-62
2022/12/23 09:06:51;;;;;;;;;;;10.60;99.90;;;;;;5043527;28;19920;-62
2022/12/23 09:09:17;;;;;;;;;;;10.60;99.90;;;;;;5042078;28;19920;-63
2022/12/23 09:11:42;;;;;;;;;;;10.60;99.90;;;;;;5050886;28;19917;-61
2022/12/23 09:14:09;;;;;;;;;;;10.60;99.90;;;;;;5045070;28;19913;-58
2022/12/23 09:16:35;;;;;;;;;;;10.60;99.90;;;;;;5067118;22;19929;-59
2022/12/23 09:19:00;;;;;;;;;;;10.60;99.90;;;;;;5040971;28;19920;-60
2022/12/23 09:21:26;;;;;;;;;;;10.60;99.90;;;;;;5042217;28;19916;-61
2022/12/23 09:23:51;;;;;;;;;;;10.50;99.90;;;;;;5041737;28;19917;-61
2022/12/23 09:26:18;;;;;;;;;;;10.50;99.90;;;;;;5043764;28;20011;-61
2022/12/23 09:28:44;;;;;;;;;;;10.50;99.90;;;;;;5044577;28;20302;-61
2022/12/23 09:31:10;;;;;;;;;;;10.50;99.90;;;;;;5041178;28;19913;-61
2022/12/23 09:33:35;;;;;;;;;;;10.50;99.90;;;;;;5042798;28;19936;-61
2022/12/23 09:36:02;;;;;;;;;;;10.50;99.90;;;;;;5042334;28;19913;-59
2022/12/23 09:38:27;;;;;;;;;;;10.60;99.90;;;;;;5042961;28;19948;-60
2022/12/23 09:40:59;;;;;;;;;;;10.60;99.90;;;;;;5045627;28;20018;-61
2022/12/23 09:43:37;;;;;;;;;;;10.50;99.90;;;;;;5048460;28;20306;-61
2022/12/23 09:46:22;;;;;;;;;;;10.50;99.90;;;;;;5046500;28;20434;-60
2022/12/23 09:49:06;;;;;;;;;;;10.50;99.90;;;;;;5044859;28;19913;-61
2022/12/23 09:51:32;;;;;;;;;;;10.60;99.90;;;;;;5046733;28;20767;-60
2022/12/23 09:54:18;;;;;;;;;;;10.50;99.90;;;;;;5045755;28;19960;-60
2022/12/23 09:56:46;;;;;;;;;;;10.50;99.90;;;;;;5044438;28;20560;-60
2022/12/23 09:59:22;;;;;;;;;;;10.50;99.90;;;;;;5045779;28;19927;-60
2022/12/23 10:01:53;;;;;;;;;;;10.60;99.90;;;;;;5043518;28;19927;-61
2022/12/23 10:04:21;;;;;;;;;;;10.50;99.90;;;;;;5046379;28;19917;-62
2022/12/23 10:06:53;;;;;;;;;;;10.50;99.90;;;;;;5045011;28;20015;-61
2022/12/23 10:09:19;;;;;;;;;;;10.50;99.90;;;;;;5041503;28;19924;-59
2022/12/23 10:11:47;;;;;;;;;;;10.50;99.90;;;;;;5043879;28;19921;-59
2022/12/23 10:14:14;;;;;;;;;;;10.50;99.90;;;;;;5044874;28;19916;-59
2022/12/23 10:16:43;;;;;;;;;;;10.50;99.90;;;;;;5045336;28;20039;-61
2022/12/23 10:19:27;;;;;;;;;;;10.50;99.90;;;;;;5040533;28;19924;-59
2022/12/23 10:21:53;;;;;;;;;;;10.50;99.90;;;;;;5047057;28;19917;-59
2022/12/23 10:24:23;;;;;;;;;;;10.60;99.90;;;;;;5044680;28;19917;-60
2022/12/23 10:26:56;;;;;;;;;;;10.60;99.90;;;;;;5041283;28;20515;-60
2022/12/23 10:29:23;;;;;;;;;;;10.60;99.90;;;;;;5042099;28;19916;-60
2022/12/23 10:31:55;;;;;;;;;;;10.60;99.90;;;;;;5041946;28;20453;-59
2022/12/23 10:34:24;;;;;;;;;;;10.60;99.90;;;;;;5043045;28;19913;-57
2022/12/23 10:37:06;;;;;;;;;;;10.60;99.90;;;;;;5041556;28;19913;-61
2022/12/23 10:39:45;;;;;;;;;;;10.50;99.90;;;;;;5040056;28;19917;-58
2022/12/23 10:42:21;;;;;;;;;;;10.40;99.90;;;;;;5037970;28;20467;-59
2022/12/23 10:45:05;;;;;;;;;;;10.40;99.90;;;;;;5044738;28;20360;-59
2022/12/23 10:47:42;;;;;;;;;;;10.40;99.90;;;;;;5044762;28;20814;-60
2022/12/23 10:50:15;;;;;;;;;;;10.40;99.90;;;;;;5045146;28;19924;-59
2022/12/23 10:52:42;;;;;;;;;;;10.50;99.90;;;;;;5037683;28;19943;-60
2022/12/23 10:55:28;;;;;;;;;;;10.50;99.90;;;;;;5045567;28;20288;-59
2022/12/23 10:57:56;;;;;;;;;;;10.50;99.90;;;;;;5045110;28;19921;-60
2022/12/23 11:00:22;;;;;;;;;;;10.50;99.90;;;;;;5042186;28;19913;-58
2022/12/23 11:02:48;;;;;;;;;;;10.50;99.90;;;;;;5039711;28;20077;-58
2022/12/23 11:05:21;;;;;;;;;;;10.50;99.90;;;;;;5039979;28;20035;-62
2022/12/23 11:07:46;;;;;;;;;;;10.50;99.90;;;;;;5040036;28;19924;-61
2022/12/23 11:10:15;;;;;;;;;;;10.50;99.90;;;;;;5042949;28;19921;-61
2022/12/23 11:12:42;;;;;;;;;;;10.40;99.90;;;;;;5040073;28;19939;-61
2022/12/23 11:15:25;;;;;;;;;;;10.40;99.90;;;;;;5044966;28;19970;-60
2022/12/23 11:18:19;;;;;;;;;;;10.40;99.90;;;;;;5042680;28;19943;-61
2022/12/23 11:21:01;;;;;;;;;;;10.50;99.90;;;;;;5017778;28;19921;-60
2022/12/23 11:23:28;;;;;;;;;;;10.50;99.90;;;;;;5038387;28;20258;-61
2022/12/23 11:26:05;;;;;;;;;;;10.50;99.90;;;;;;5043158;28;19924;-61
2022/12/23 11:28:31;;;;;;;;;;;10.60;99.90;;;;;;5040956;28;19920;-60
2022/12/23 11:31:04;;;;;;;;;;;10.60;99.90;;;;;;5040955;28;19928;-60
2022/12/23 11:33:31;;;;;;;;;;;10.50;99.90;;;;;;5036087;28;20066;-60
2022/12/23 11:36:00;;;;;;;;;;;10.50;99.90;;;;;;5042425;28;19923;-60
2022/12/23 11:38:25;;;;;;;;;;;10.40;99.90;;;;;;5040804;28;20327;-60
2022/12/23 11:40:51;;;;;;;;;;;10.40;99.90;;;;;;5042368;28;20307;-59
2022/12/23 11:43:17;;;;;;;;;;;10.40;99.90;;;;;;5039585;28;20331;-60
2022/12/23 11:45:42;;;;;;;;;;;10.30;99.90;;;;;;5042231;28;20291;-61
2022/12/23 11:48:25;;;;;;;;;;;10.20;99.90;;;;;;5044773;28;19924;-61
2022/12/23 11:50:57;;;;;;;;;;;10.10;99.90;;;;;;5037879;28;19917;-60
2022/12/23 11:53:23;;;;;;;;;;;10.10;99.90;;;;;;5041938;28;19913;-60
2022/12/23 11:56:00;;;;;;;;;;;10.00;99.90;;;;;;5041385;28;19924;-59
2022/12/23 11:58:26;;;;;;;;;;;10.00;99.90;;;;;;5041935;28;20435;-60
2022/12/23 12:00:54;;;;;;;;;;;10.00;99.90;;;;;;5042685;28;19916;-60
2022/12/23 12:03:21;;;;;;;;;;;10.10;99.90;;;;;;5043693;28;19917;-61
2022/12/23 12:05:48;;;;;;;;;;;10.10;99.90;;;;;;5042110;28;20006;-60
2022/12/23 12:08:17;;;;;;;;;;;10.20;99.90;;;;;;5040064;28;20544;-60
2022/12/23 12:10:43;;;;;;;;;;;10.30;99.90;;;;;;5042151;28;19920;-60
2022/12/23 12:13:24;;;;;;;;;;;10.30;99.90;;;;;;5041569;28;19912;-60
2022/12/23 12:16:08;;;;;;;;;;;10.30;99.90;;;;;;5038844;28;19987;-60
2022/12/23 12:18:34;;;;;;;;;;;10.30;99.90;;;;;;5036095;28;20431;-60
2022/12/23 12:21:05;;;;;;;;;;;10.20;99.90;;;;;;5044875;28;20114;-60
2022/12/23 12:23:33;;;;;;;;;;;10.20;99.90;;;;;;5040735;28;19919;-60
2022/12/23 12:26:01;;;;;;;;;;;10.20;99.90;;;;;;5043555;28;19917;-60
2022/12/23 12:28:31;;;;;;;;;;;10.20;99.90;;;;;;5033287;28;19921;-60
2022/12/23 12:31:15;;;;;;;;;;;10.20;99.90;;;;;;5036940;28;20484;-60
2022/12/23 12:33:49;;;;;;;;;;;10.20;99.90;;;;;;5038683;28;19928;-60
2022/12/23 12:36:29;;;;;;;;;;;10.20;99.90;;;;;;5035713;28;20015;-59
2022/12/23 12:38:56;;;;;;;;;;;10.20;99.90;;;;;;5041105;28;20001;-60
2022/12/23 12:41:24;;;;;;;;;;;10.20;99.90;;;;;;5043453;28;20442;-59
2022/12/23 12:44:12;;;;;;;;;;;10.20;99.90;;;;;;5039634;28;19920;-62
2022/12/23 12:46:43;;;;;;;;;;;10.20;99.90;;;;;;5025858;28;19927;-61
2022/12/23 12:49:23;;;;;;;;;;;10.20;99.90;;;;;;5044113;28;20416;-61
2022/12/23 12:52:07;;;;;;;;;;;10.20;99.90;;;;;;5040788;28;19917;-62
2022/12/23 12:54:55;;;;;;;;;;;10.20;99.90;;;;;;5040867;28;19975;-59
2022/12/23 12:57:21;;;;;;;;;;;10.20;99.90;;;;;;5037763;28;19916;-59
2022/12/23 12:59:48;;;;;;;;;;;10.20;99.90;;;;;;5043859;28;20000;-61
2022/12/23 13:02:14;;;;;;;;;;;10.20;99.90;;;;;;5040637;28;19928;-60
2022/12/23 13:04:48;;;;;;;;;;;10.20;99.90;;;;;;5044261;28;19909;-59
2022/12/23 13:07:28;;;;;;;;;;;10.10;99.90;;;;;;5042374;28;19912;-60
2022/12/23 13:10:26;;;;;;;;;;;10.10;99.90;;;;;;5045064;28;19921;-59
2022/12/23 13:13:10;;;;;;;;;;;10.10;99.90;;;;;;5001999;28;19909;-60
2022/12/23 13:15:44;;;;;;;;;;;10.10;99.90;;;;;;5038402;28;19923;-60
2022/12/23 13:18:20;;;;;;;;;;;10.10;99.90;;;;;;5046265;28;19920;-60
2022/12/23 13:21:06;;;;;;;;;;;10.10;99.90;;;;;;5045223;28;19921;-60
2022/12/23 13:23:44;;;;;;;;;;;10.10;99.90;;;;;;5045645;28;20522;-61
2022/12/23 13:26:30;;;;;;;;;;;10.10;99.90;;;;;;5045037;28;20338;-60
2022/12/23 13:28:55;;;;;;;;;;;10.10;99.90;;;;;;5005570;28;20546;-60
2022/12/23 13:31:24;;;;;;;;;;;10.10;99.90;;;;;;5047754;28;19963;-61
2022/12/23 13:33:52;;;;;;;;;;;10.10;99.90;;;;;;5048511;28;19947;-61
2022/12/23 13:36:41;;;;;;;;;;;10.10;99.90;;;;;;5045489;28;20335;-60
2022/12/23 13:39:21;;;;;;;;;;;10.20;99.90;;;;;;5045984;28;20433;-61
2022/12/23 13:41:52;;;;;;;;;;;10.20;99.90;;;;;;5041569;28;19935;-60
2022/12/23 13:44:18;;;;;;;;;;;10.20;99.90;;;;;;5045407;28;19921;-60
2022/12/23 13:46:55;;;;;;;;;;;10.20;99.90;;;;;;5042824;28;19931;-62
2022/12/23 13:49:41;;;;;;;;;;;10.20;99.90;;;;;;5044923;28;19969;-60
2022/12/23 13:52:25;;;;;;;;;;;10.20;99.90;;;;;;5040818;28;19913;-63
2022/12/23 13:55:09;;;;;;;;;;;10.20;99.90;;;;;;5043102;28;20047;-61
2022/12/23 13:57:35;;;;;;;;;;;10.20;99.90;;;;;;5040178;28;20010;-61
2022/12/23 14:00:20;;;;;;;;;;;10.20;99.90;;;;;;5038863;28;20007;-60
2022/12/23 14:02:48;;;;;;;;;;;10.30;99.90;;;;;;5042761;28;19987;-61
2022/12/23 14:05:33;;;;;;;;;;;10.20;99.90;;;;;;5041023;28;19921;-59
2022/12/23 14:07:59;;;;;;;;;;;10.20;99.90;;;;;;5036653;28;19970;-61
2022/12/23 14:10:25;;;;;;;;;;;10.30;99.90;;;;;;5046121;28;20080;-60
2022/12/23 14:12:56;;;;;;;;;;;10.30;99.90;;;;;;5037508;28;19909;-60
2022/12/23 14:15:30;;;;;;;;;;;10.30;99.90;;;;;;5044448;28;21693;-61
2022/12/23 14:17:56;;;;;;;;;;;10.30;99.90;;;;;;5047866;28;20007;-60
2022/12/23 14:20:21;;;;;;;;;;;10.30;99.90;;;;;;5046558;28;20003;-61
2022/12/23 14:22:59;;;;;;;;;;;10.30;99.90;;;;;;5043242;28;19921;-60
2022/12/23 14:25:33;;;;;;;;;;;10.40;99.90;;;;;;5046185;28;19921;-60
2022/12/23 14:28:01;;;;;;;;;;;10.40;99.90;;;;;;5044127;28;19913;-61
2022/12/23 14:30:29;;;;;;;;;;;10.40;99.90;;;;;;5046052;28;19920;-61
2022/12/23 14:32:59;;;;;;;;;;;10.40;99.90;;;;;;5045725;28;19919;-61
2022/12/23 14:35:30;;;;;;;;;;;10.50;99.90;;;;;;5046259;28;20454;-61
2022/12/23 14:38:14;;;;;;;;;;;10.50;99.90;;;;;;5050243;28;19917;-59
2022/12/23 14:40:48;;;;;;;;;;;10.50;99.90;;;;;;5045286;28;19944;-60
2022/12/23 14:43:32;;;;;;;;;;;10.60;99.90;;;;;;5046232;28;20380;-61
2022/12/23 14:46:00;;;;;;;;;;;10.50;99.90;;;;;;5047690;28;21899;-61
2022/12/23 14:48:32;;;;;;;;;;;10.60;99.90;;;;;;5046445;28;19931;-62
2022/12/23 14:51:02;;;;;;;;;;;10.50;99.90;;;;;;5043924;28;19912;-59
2022/12/23 14:53:28;;;;;;;;;;;10.50;99.90;;;;;;5047493;28;19913;-61
2022/12/23 14:56:10;;;;;;;;;;;10.60;99.90;;;;;;5043519;28;20000;-60